sensor_id;sensor_type;location;lat;lon;timestamp;temperature;humidity
2913;DHT22;1466;48.778;9.166;2022-07-24T00:00:01;26.20;87.10
2913;DHT22;1466;48.778;9.166;2022-07-24T00:02:26;26.20;87.10
2913;DHT22;1466;48.778;9.166;2022-07-24T00:04:52;26.20;87.10
2913;DHT22;1466;48.778;9.166;2022-07-24T00:07:22;26.20;88.00
2913;DHT22;1466;48.778;9.166;2022-07-24T00:09:47;26.10;87.50
2913;DHT22;1466;48.778;9.166;2022-07-24T00:12:13;26.00;87.90
2913;DHT22;1466;48.778;9.166;2022-07-24T00:14:39;25.90;88.20
2913;DHT22;1466;48.778;9.166;2022-07-24T00:17:04;25.90;88.30
2913;DHT22;1466;48.778;9.166;2022-07-24T00:19:30;25.90;88.60
2913;DHT22;1466;48.778;9.166;2022-07-24T00:21:55;25.90;88.60
2913;DHT22;1466;48.778;9.166;2022-07-24T00:24:22;25.70;88.80
2913;DHT22;1466;48.778;9.166;2022-07-24T00:26:48;25.70;88.90
2913;DHT22;1466;48.778;9.166;2022-07-24T00:29:13;25.70;89.10
2913;DHT22;1466;48.778;9.166;2022-07-24T00:31:39;25.70;89.10
2913;DHT22;1466;48.778;9.166;2022-07-24T00:34:04;25.60;89.20
2913;DHT22;1466;48.778;9.166;2022-07-24T00:36:30;25.60;89.30
2913;DHT22;1466;48.778;9.166;2022-07-24T00:38:56;25.50;89.30
2913;DHT22;1466;48.778;9.166;2022-07-24T00:41:21;25.60;89.50
2913;DHT22;1466;48.778;9.166;2022-07-24T00:44:14;25.60;89.40
2913;DHT22;1466;48.778;9.166;2022-07-24T00:46:42;25.60;89.20
2913;DHT22;1466;48.778;9.166;2022-07-24T00:49:10;25.60;89.10
2913;DHT22;1466;48.778;9.166;2022-07-24T00:51:35;25.70;89.00
2913;DHT22;1466;48.778;9.166;2022-07-24T00:54:05;25.60;89.00
2913;DHT22;1466;48.778;9.166;2022-07-24T00:56:31;25.50;89.10
2913;DHT22;1466;48.778;9.166;2022-07-24T00:58:57;25.50;89.30
2913;DHT22;1466;48.778;9.166;2022-07-24T01:01:22;25.50;89.30
2913;DHT22;1466;48.778;9.166;2022-07-24T01:03:48;25.50;89.40
2913;DHT22;1466;48.778;9.166;2022-07-24T01:06:14;25.50;89.50
2913;DHT22;1466;48.778;9.166;2022-07-24T01:08:40;25.40;89.50
2913;DHT22;1466;48.778;9.166;2022-07-24T01:11:09;25.40;89.60
2913;DHT22;1466;48.778;9.166;2022-07-24T01:13:35;25.40;89.60
2913;DHT22;1466;48.778;9.166;2022-07-24T01:16:01;25.40;89.70
2913;DHT22;1466;48.778;9.166;2022-07-24T01:18:27;25.40;89.70
2913;DHT22;1466;48.778;9.166;2022-07-24T01:20:53;25.40;89.90
2913;DHT22;1466;48.778;9.166;2022-07-24T01:23:18;25.50;89.90
2913;DHT22;1466;48.778;9.166;2022-07-24T01:25:44;25.50;89.70
2913;DHT22;1466;48.778;9.166;2022-07-24T01:28:10;25.50;89.70
2913;DHT22;1466;48.778;9.166;2022-07-24T01:30:35;25.50;89.70
2913;DHT22;1466;48.778;9.166;2022-07-24T01:33:01;25.50;89.60
2913;DHT22;1466;48.778;9.166;2022-07-24T01:35:26;25.50;89.70
2913;DHT22;1466;48.778;9.166;2022-07-24T01:37:52;25.50;89.90
2913;DHT22;1466;48.778;9.166;2022-07-24T01:40:19;25.50;89.90
2913;DHT22;1466;48.778;9.166;2022-07-24T01:42:45;25.40;89.70
2913;DHT22;1466;48.778;9.166;2022-07-24T01:45:11;25.40;90.00
2913;DHT22;1466;48.778;9.166;2022-07-24T01:47:41;25.40;90.00
2913;DHT22;1466;48.778;9.166;2022-07-24T01:50:09;25.30;89.90
2913;DHT22;1466;48.778;9.166;2022-07-24T01:52:35;25.30;90.00
2913;DHT22;1466;48.778;9.166;2022-07-24T01:55:01;25.20;90.20
2913;DHT22;1466;48.778;9.166;2022-07-24T01:57:27;25.20;90.30
2913;DHT22;1466;48.778;9.166;2022-07-24T01:59:52;25.10;90.50
2913;DHT22;1466;48.778;9.166;2022-07-24T02:02:18;25.10;90.60
2913;DHT22;1466;48.778;9.166;2022-07-24T02:04:44;25.00;90.60
2913;DHT22;1466;48.778;9.166;2022-07-24T02:07:09;25.00;90.70
2913;DHT22;1466;48.778;9.166;2022-07-24T02:09:35;25.00;91.00
2913;DHT22;1466;48.778;9.166;2022-07-24T02:12:00;24.90;90.70
2913;DHT22;1466;48.778;9.166;2022-07-24T02:14:26;24.90;90.70
2913;DHT22;1466;48.778;9.166;2022-07-24T02:16:51;24.90;90.80
2913;DHT22;1466;48.778;9.166;2022-07-24T02:19:17;24.90;90.80
2913;DHT22;1466;48.778;9.166;2022-07-24T02:21:43;24.90;90.80
2913;DHT22;1466;48.778;9.166;2022-07-24T02:24:09;24.90;90.80
2913;DHT22;1466;48.778;9.166;2022-07-24T02:26:34;24.90;91.00
2913;DHT22;1466;48.778;9.166;2022-07-24T02:29:00;24.90;91.10
2913;DHT22;1466;48.778;9.166;2022-07-24T02:31:26;24.90;91.10
2913;DHT22;1466;48.778;9.166;2022-07-24T02:33:51;24.90;91.10
2913;DHT22;1466;48.778;9.166;2022-07-24T02:36:17;24.80;91.10
2913;DHT22;1466;48.778;9.166;2022-07-24T02:38:43;24.80;91.20
2913;DHT22;1466;48.778;9.166;2022-07-24T02:41:09;24.80;91.10
2913;DHT22;1466;48.778;9.166;2022-07-24T02:43:34;24.70;91.10
2913;DHT22;1466;48.778;9.166;2022-07-24T02:46:00;24.70;91.10
2913;DHT22;1466;48.778;9.166;2022-07-24T02:48:26;24.80;91.00
2913;DHT22;1466;48.778;9.166;2022-07-24T02:50:51;24.80;91.00
2913;DHT22;1466;48.778;9.166;2022-07-24T02:53:17;24.80;90.90
2913;DHT22;1466;48.778;9.166;2022-07-24T02:55:42;24.70;90.80
2913;DHT22;1466;48.778;9.166;2022-07-24T02:58:08;24.70;90.80
2913;DHT22;1466;48.778;9.166;2022-07-24T03:00:34;24.60;90.90
2913;DHT22;1466;48.778;9.166;2022-07-24T03:03:01;24.60;90.90
2913;DHT22;1466;48.778;9.166;2022-07-24T03:05:27;24.50;90.80
2913;DHT22;1466;48.778;9.166;2022-07-24T03:07:52;24.50;90.90
2913;DHT22;1466;48.778;9.166;2022-07-24T03:10:18;24.40;91.00
2913;DHT22;1466;48.778;9.166;2022-07-24T03:12:44;24.30;91.50
2913;DHT22;1466;48.778;9.166;2022-07-24T03:15:10;24.30;91.30
2913;DHT22;1466;48.778;9.166;2022-07-24T03:17:36;24.40;91.40
2913;DHT22;1466;48.778;9.166;2022-07-24T03:20:03;24.30;91.40
2913;DHT22;1466;48.778;9.166;2022-07-24T03:22:29;24.30;91.40
2913;DHT22;1466;48.778;9.166;2022-07-24T03:24:54;24.30;91.40
2913;DHT22;1466;48.778;9.166;2022-07-24T03:27:20;24.30;91.50
2913;DHT22;1466;48.778;9.166;2022-07-24T03:29:45;24.30;91.50
2913;DHT22;1466;48.778;9.166;2022-07-24T03:32:11;24.30;91.50
2913;DHT22;1466;48.778;9.166;2022-07-24T03:34:37;24.30;91.50
2913;DHT22;1466;48.778;9.166;2022-07-24T03:37:02;24.30;91.60
2913;DHT22;1466;48.778;9.166;2022-07-24T03:39:28;24.40;91.60
2913;DHT22;1466;48.778;9.166;2022-07-24T03:41:53;24.40;91.50
2913;DHT22;1466;48.778;9.166;2022-07-24T03:44:19;24.30;91.50
2913;DHT22;1466;48.778;9.166;2022-07-24T03:46:45;24.30;91.90
2913;DHT22;1466;48.778;9.166;2022-07-24T03:49:10;24.30;91.50
2913;DHT22;1466;48.778;9.166;2022-07-24T03:51:36;24.20;91.60
2913;DHT22;1466;48.778;9.166;2022-07-24T03:54:02;24.10;91.80
2913;DHT22;1466;48.778;9.166;2022-07-24T03:56:28;24.10;91.90
2913;DHT22;1466;48.778;9.166;2022-07-24T03:58:54;24.10;92.00
2913;DHT22;1466;48.778;9.166;2022-07-24T04:01:21;24.10;92.10
2913;DHT22;1466;48.778;9.166;2022-07-24T04:03:47;24.20;92.00
2913;DHT22;1466;48.778;9.166;2022-07-24T04:06:12;24.10;92.10
2913;DHT22;1466;48.778;9.166;2022-07-24T04:08:38;24.10;92.20
2913;DHT22;1466;48.778;9.166;2022-07-24T04:11:04;24.10;92.30
2913;DHT22;1466;48.778;9.166;2022-07-24T04:13:31;24.10;92.30
2913;DHT22;1466;48.778;9.166;2022-07-24T04:15:57;24.10;92.40
2913;DHT22;1466;48.778;9.166;2022-07-24T04:18:23;24.10;92.40
2913;DHT22;1466;48.778;9.166;2022-07-24T04:20:49;24.00;92.30
2913;DHT22;1466;48.778;9.166;2022-07-24T04:23:15;24.00;92.40
2913;DHT22;1466;48.778;9.166;2022-07-24T04:25:41;24.00;92.30
2913;DHT22;1466;48.778;9.166;2022-07-24T04:28:06;24.00;92.30
2913;DHT22;1466;48.778;9.166;2022-07-24T04:30:32;24.00;92.30
2913;DHT22;1466;48.778;9.166;2022-07-24T04:32:58;24.00;92.40
2913;DHT22;1466;48.778;9.166;2022-07-24T04:35:24;24.10;92.40
2913;DHT22;1466;48.778;9.166;2022-07-24T04:37:50;24.10;92.30
2913;DHT22;1466;48.778;9.166;2022-07-24T04:40:16;24.10;92.30
2913;DHT22;1466;48.778;9.166;2022-07-24T04:42:42;24.10;92.20
2913;DHT22;1466;48.778;9.166;2022-07-24T04:45:08;24.10;92.30
2913;DHT22;1466;48.778;9.166;2022-07-24T04:47:35;24.10;92.40
2913;DHT22;1466;48.778;9.166;2022-07-24T04:50:01;24.10;92.40
2913;DHT22;1466;48.778;9.166;2022-07-24T04:52:27;24.20;92.30
2913;DHT22;1466;48.778;9.166;2022-07-24T04:54:53;24.30;92.30
2913;DHT22;1466;48.778;9.166;2022-07-24T04:57:18;24.30;92.30
2913;DHT22;1466;48.778;9.166;2022-07-24T04:59:44;24.30;92.20
2913;DHT22;1466;48.778;9.166;2022-07-24T05:02:10;24.20;92.20
2913;DHT22;1466;48.778;9.166;2022-07-24T05:04:35;24.20;92.20
2913;DHT22;1466;48.778;9.166;2022-07-24T05:07:02;24.20;92.20
2913;DHT22;1466;48.778;9.166;2022-07-24T05:09:28;24.20;92.20
2913;DHT22;1466;48.778;9.166;2022-07-24T05:11:54;24.20;92.20
2913;DHT22;1466;48.778;9.166;2022-07-24T05:14:20;24.20;92.20
2913;DHT22;1466;48.778;9.166;2022-07-24T05:16:45;24.20;92.20
2913;DHT22;1466;48.778;9.166;2022-07-24T05:19:11;24.20;92.20
2913;DHT22;1466;48.778;9.166;2022-07-24T05:21:36;24.30;92.30
2913;DHT22;1466;48.778;9.166;2022-07-24T05:24:05;24.40;92.20
2913;DHT22;1466;48.778;9.166;2022-07-24T05:26:31;24.40;92.10
2913;DHT22;1466;48.778;9.166;2022-07-24T05:29:01;24.40;92.10
2913;DHT22;1466;48.778;9.166;2022-07-24T05:31:28;24.50;92.00
2913;DHT22;1466;48.778;9.166;2022-07-24T05:33:53;24.50;92.30
2913;DHT22;1466;48.778;9.166;2022-07-24T05:36:19;24.50;91.90
2913;DHT22;1466;48.778;9.166;2022-07-24T05:38:45;24.50;91.90
2913;DHT22;1466;48.778;9.166;2022-07-24T05:41:11;24.50;91.80
2913;DHT22;1466;48.778;9.166;2022-07-24T05:43:38;24.50;91.80
2913;DHT22;1466;48.778;9.166;2022-07-24T05:46:04;24.60;91.80
2913;DHT22;1466;48.778;9.166;2022-07-24T05:48:30;24.70;91.70
2913;DHT22;1466;48.778;9.166;2022-07-24T05:50:56;24.70;91.60
2913;DHT22;1466;48.778;9.166;2022-07-24T05:53:22;24.70;91.50
2913;DHT22;1466;48.778;9.166;2022-07-24T05:55:49;24.80;91.50
2913;DHT22;1466;48.778;9.166;2022-07-24T05:58:15;24.90;91.40
2913;DHT22;1466;48.778;9.166;2022-07-24T06:00:40;24.90;91.30
2913;DHT22;1466;48.778;9.166;2022-07-24T06:03:06;24.90;91.20
2913;DHT22;1466;48.778;9.166;2022-07-24T06:05:31;25.00;90.80
2913;DHT22;1466;48.778;9.166;2022-07-24T06:07:57;24.90;90.90
2913;DHT22;1466;48.778;9.166;2022-07-24T06:10:23;25.00;90.90
2913;DHT22;1466;48.778;9.166;2022-07-24T06:12:48;25.00;90.70
2913;DHT22;1466;48.778;9.166;2022-07-24T06:15:14;25.00;90.60
2913;DHT22;1466;48.778;9.166;2022-07-24T06:17:40;25.10;90.60
2913;DHT22;1466;48.778;9.166;2022-07-24T06:20:07;25.20;90.50
2913;DHT22;1466;48.778;9.166;2022-07-24T06:22:33;25.20;90.30
2913;DHT22;1466;48.778;9.166;2022-07-24T06:24:58;25.30;90.00
2913;DHT22;1466;48.778;9.166;2022-07-24T06:27:24;25.30;90.00
2913;DHT22;1466;48.778;9.166;2022-07-24T06:29:49;25.20;89.90
2913;DHT22;1466;48.778;9.166;2022-07-24T06:32:15;25.20;90.00
2913;DHT22;1466;48.778;9.166;2022-07-24T06:34:40;25.30;90.10
2913;DHT22;1466;48.778;9.166;2022-07-24T06:37:06;25.30;90.10
2913;DHT22;1466;48.778;9.166;2022-07-24T06:39:32;25.50;90.20
2913;DHT22;1466;48.778;9.166;2022-07-24T06:41:57;25.40;90.10
2913;DHT22;1466;48.778;9.166;2022-07-24T06:44:23;25.50;90.20
2913;DHT22;1466;48.778;9.166;2022-07-24T06:46:49;25.50;90.20
2913;DHT22;1466;48.778;9.166;2022-07-24T06:49:15;25.60;90.10
2913;DHT22;1466;48.778;9.166;2022-07-24T06:51:41;25.70;90.10
2913;DHT22;1466;48.778;9.166;2022-07-24T06:54:06;25.80;90.10
2913;DHT22;1466;48.778;9.166;2022-07-24T06:56:32;25.80;90.00
2913;DHT22;1466;48.778;9.166;2022-07-24T06:58:58;25.60;90.00
2913;DHT22;1466;48.778;9.166;2022-07-24T07:01:25;25.60;90.10
2913;DHT22;1466;48.778;9.166;2022-07-24T07:03:52;25.60;90.00
2913;DHT22;1466;48.778;9.166;2022-07-24T07:06:18;25.70;90.00
2913;DHT22;1466;48.778;9.166;2022-07-24T07:08:44;25.70;89.90
2913;DHT22;1466;48.778;9.166;2022-07-24T07:11:10;25.80;89.60
2913;DHT22;1466;48.778;9.166;2022-07-24T07:13:35;25.90;89.50
2913;DHT22;1466;48.778;9.166;2022-07-24T07:16:01;25.90;89.70
2913;DHT22;1466;48.778;9.166;2022-07-24T07:18:27;25.90;90.00
2913;DHT22;1466;48.778;9.166;2022-07-24T07:20:52;25.90;89.70
2913;DHT22;1466;48.778;9.166;2022-07-24T07:23:23;25.90;89.80
2913;DHT22;1466;48.778;9.166;2022-07-24T07:25:49;26.10;89.90
2913;DHT22;1466;48.778;9.166;2022-07-24T07:28:15;26.20;89.90
2913;DHT22;1466;48.778;9.166;2022-07-24T07:30:41;26.20;89.80
2913;DHT22;1466;48.778;9.166;2022-07-24T07:33:07;26.40;89.90
2913;DHT22;1466;48.778;9.166;2022-07-24T07:35:32;26.50;90.00
2913;DHT22;1466;48.778;9.166;2022-07-24T07:37:58;26.50;90.00
2913;DHT22;1466;48.778;9.166;2022-07-24T07:40:26;26.50;90.20
2913;DHT22;1466;48.778;9.166;2022-07-24T07:42:52;26.60;90.30
2913;DHT22;1466;48.778;9.166;2022-07-24T07:45:18;26.70;90.30
2913;DHT22;1466;48.778;9.166;2022-07-24T07:47:44;26.80;90.30
2913;DHT22;1466;48.778;9.166;2022-07-24T07:50:10;26.90;90.40
2913;DHT22;1466;48.778;9.166;2022-07-24T07:52:36;27.00;90.30
2913;DHT22;1466;48.778;9.166;2022-07-24T07:55:03;27.10;90.20
2913;DHT22;1466;48.778;9.166;2022-07-24T07:57:29;27.10;90.30
2913;DHT22;1466;48.778;9.166;2022-07-24T07:59:54;27.10;90.20
2913;DHT22;1466;48.778;9.166;2022-07-24T08:02:20;27.10;90.00
2913;DHT22;1466;48.778;9.166;2022-07-24T08:04:45;27.10;89.80
2913;DHT22;1466;48.778;9.166;2022-07-24T08:07:11;27.20;89.70
2913;DHT22;1466;48.778;9.166;2022-07-24T08:09:36;27.30;89.40
2913;DHT22;1466;48.778;9.166;2022-07-24T08:12:03;27.50;88.50
2913;DHT22;1466;48.778;9.166;2022-07-24T08:14:29;27.50;86.70
2913;DHT22;1466;48.778;9.166;2022-07-24T08:16:55;27.40;86.40
2913;DHT22;1466;48.778;9.166;2022-07-24T08:19:21;27.50;86.20
2913;DHT22;1466;48.778;9.166;2022-07-24T08:21:46;27.50;86.00
2913;DHT22;1466;48.778;9.166;2022-07-24T08:24:12;27.60;85.50
2913;DHT22;1466;48.778;9.166;2022-07-24T08:26:38;27.70;85.20
2913;DHT22;1466;48.778;9.166;2022-07-24T08:29:04;27.70;84.80
2913;DHT22;1466;48.778;9.166;2022-07-24T08:31:29;27.80;84.50
2913;DHT22;1466;48.778;9.166;2022-07-24T08:33:55;27.90;84.10
2913;DHT22;1466;48.778;9.166;2022-07-24T08:36:22;27.90;83.70
2913;DHT22;1466;48.778;9.166;2022-07-24T08:38:47;28.10;83.70
2913;DHT22;1466;48.778;9.166;2022-07-24T08:41:13;28.10;82.60
2913;DHT22;1466;48.778;9.166;2022-07-24T08:43:39;28.20;82.30
2913;DHT22;1466;48.778;9.166;2022-07-24T08:46:08;28.20;81.70
2913;DHT22;1466;48.778;9.166;2022-07-24T08:48:35;28.20;81.50
2913;DHT22;1466;48.778;9.166;2022-07-24T08:51:02;28.30;81.30
2913;DHT22;1466;48.778;9.166;2022-07-24T08:53:27;28.40;81.00
2913;DHT22;1466;48.778;9.166;2022-07-24T08:55:53;28.40;80.70
2913;DHT22;1466;48.778;9.166;2022-07-24T08:58:19;28.50;80.50
2913;DHT22;1466;48.778;9.166;2022-07-24T09:00:44;28.60;80.20
2913;DHT22;1466;48.778;9.166;2022-07-24T09:03:10;28.60;79.70
2913;DHT22;1466;48.778;9.166;2022-07-24T09:05:54;28.70;79.50
2913;DHT22;1466;48.778;9.166;2022-07-24T09:08:20;28.80;79.20
2913;DHT22;1466;48.778;9.166;2022-07-24T09:10:59;28.80;78.60
2913;DHT22;1466;48.778;9.166;2022-07-24T09:13:27;28.70;78.40
2913;DHT22;1466;48.778;9.166;2022-07-24T09:15:55;28.80;78.50
2913;DHT22;1466;48.778;9.166;2022-07-24T09:18:31;28.80;78.40
2913;DHT22;1466;48.778;9.166;2022-07-24T09:20:58;28.80;78.20
2913;DHT22;1466;48.778;9.166;2022-07-24T09:23:24;28.80;78.60
2913;DHT22;1466;48.778;9.166;2022-07-24T09:25:52;28.90;77.70
2913;DHT22;1466;48.778;9.166;2022-07-24T09:28:18;28.90;77.50
2913;DHT22;1466;48.778;9.166;2022-07-24T09:30:45;28.90;77.30
2913;DHT22;1466;48.778;9.166;2022-07-24T09:35:50;29.20;76.60
2913;DHT22;1466;48.778;9.166;2022-07-24T09:38:23;29.40;76.30
2913;DHT22;1466;48.778;9.166;2022-07-24T09:40:54;29.40;75.40
2913;DHT22;1466;48.778;9.166;2022-07-24T09:43:31;29.50;75.50
2913;DHT22;1466;48.778;9.166;2022-07-24T09:46:05;29.70;75.30
2913;DHT22;1466;48.778;9.166;2022-07-24T09:48:33;30.00;75.00
2913;DHT22;1466;48.778;9.166;2022-07-24T09:51:14;30.30;74.20
2913;DHT22;1466;48.778;9.166;2022-07-24T09:53:43;30.30;73.80
2913;DHT22;1466;48.778;9.166;2022-07-24T09:56:12;30.40;73.50
2913;DHT22;1466;48.778;9.166;2022-07-24T10:01:15;30.00;72.60
2913;DHT22;1466;48.778;9.166;2022-07-24T10:03:43;29.90;72.80
2913;DHT22;1466;48.778;9.166;2022-07-24T10:06:12;29.80;73.20
2913;DHT22;1466;48.778;9.166;2022-07-24T10:08:40;29.90;72.70
2913;DHT22;1466;48.778;9.166;2022-07-24T10:11:07;29.90;72.90
2913;DHT22;1466;48.778;9.166;2022-07-24T10:13:34;29.80;73.00
2913;DHT22;1466;48.778;9.166;2022-07-24T10:18:37;30.20;73.00
2913;DHT22;1466;48.778;9.166;2022-07-24T10:21:08;30.50;72.10
2913;DHT22;1466;48.778;9.166;2022-07-24T10:26:35;30.80;70.90
2913;DHT22;1466;48.778;9.166;2022-07-24T10:29:11;30.80;70.40
2913;DHT22;1466;48.778;9.166;2022-07-24T10:31:45;30.70;70.20
2913;DHT22;1466;48.778;9.166;2022-07-24T10:34:33;30.60;70.50
2913;DHT22;1466;48.778;9.166;2022-07-24T10:45:34;30.60;70.40
2913;DHT22;1466;48.778;9.166;2022-07-24T10:53:24;31.00;69.20
2913;DHT22;1466;48.778;9.166;2022-07-24T10:55:50;31.00;69.40
2913;DHT22;1466;48.778;9.166;2022-07-24T10:58:16;31.00;69.10
2913;DHT22;1466;48.778;9.166;2022-07-24T11:00:47;31.10;68.90
2913;DHT22;1466;48.778;9.166;2022-07-24T11:03:25;31.10;68.30
2913;DHT22;1466;48.778;9.166;2022-07-24T11:06:11;31.10;68.00
2913;DHT22;1466;48.778;9.166;2022-07-24T11:11:26;31.20;67.90
2913;DHT22;1466;48.778;9.166;2022-07-24T11:13:54;31.30;67.60
2913;DHT22;1466;48.778;9.166;2022-07-24T11:16:24;31.40;67.70
2913;DHT22;1466;48.778;9.166;2022-07-24T11:21:29;31.40;67.50
2913;DHT22;1466;48.778;9.166;2022-07-24T11:27:06;31.40;66.60
2913;DHT22;1466;48.778;9.166;2022-07-24T11:29:35;31.50;67.10
2913;DHT22;1466;48.778;9.166;2022-07-24T11:32:15;31.50;67.30
2913;DHT22;1466;48.778;9.166;2022-07-24T11:34:49;31.50;67.30
2913;DHT22;1466;48.778;9.166;2022-07-24T11:37:15;31.40;67.60
2913;DHT22;1466;48.778;9.166;2022-07-24T11:39:43;31.40;67.60
2913;DHT22;1466;48.778;9.166;2022-07-24T11:42:12;31.20;67.10
2913;DHT22;1466;48.778;9.166;2022-07-24T11:44:58;30.90;67.50
2913;DHT22;1466;48.778;9.166;2022-07-24T11:47:27;30.60;67.60
2913;DHT22;1466;48.778;9.166;2022-07-24T11:49:58;30.40;68.30
2913;DHT22;1466;48.778;9.166;2022-07-24T11:55:09;30.60;68.30
2913;DHT22;1466;48.778;9.166;2022-07-24T11:57:37;30.80;68.10
2913;DHT22;1466;48.778;9.166;2022-07-24T12:00:10;31.00;67.80
2913;DHT22;1466;48.778;9.166;2022-07-24T12:02:41;31.10;67.10
2913;DHT22;1466;48.778;9.166;2022-07-24T12:05:07;31.30;67.10
2913;DHT22;1466;48.778;9.166;2022-07-24T12:07:34;31.50;66.70
2913;DHT22;1466;48.778;9.166;2022-07-24T12:10:02;31.50;66.30
2913;DHT22;1466;48.778;9.166;2022-07-24T12:12:39;31.60;65.90
2913;DHT22;1466;48.778;9.166;2022-07-24T12:15:10;31.60;65.70
2913;DHT22;1466;48.778;9.166;2022-07-24T12:20:27;31.50;63.80
2913;DHT22;1466;48.778;9.166;2022-07-24T12:22:54;31.60;64.30
2913;DHT22;1466;48.778;9.166;2022-07-24T12:25:21;31.70;64.40
2913;DHT22;1466;48.778;9.166;2022-07-24T12:27:47;31.70;64.30
2913;DHT22;1466;48.778;9.166;2022-07-24T12:30:18;31.80;64.10
2913;DHT22;1466;48.778;9.166;2022-07-24T12:32:54;31.80;63.60
2913;DHT22;1466;48.778;9.166;2022-07-24T12:35:20;31.80;63.20
2913;DHT22;1466;48.778;9.166;2022-07-24T12:37:46;31.70;62.60
2913;DHT22;1466;48.778;9.166;2022-07-24T12:40:26;31.80;63.40
2913;DHT22;1466;48.778;9.166;2022-07-24T12:43:11;31.70;63.30
2913;DHT22;1466;48.778;9.166;2022-07-24T12:45:38;31.70;63.30
2913;DHT22;1466;48.778;9.166;2022-07-24T12:48:25;31.60;63.50
2913;DHT22;1466;48.778;9.166;2022-07-24T12:51:09;31.60;63.80
2913;DHT22;1466;48.778;9.166;2022-07-24T12:53:40;31.40;63.10
2913;DHT22;1466;48.778;9.166;2022-07-24T12:56:15;31.30;63.00
2913;DHT22;1466;48.778;9.166;2022-07-24T13:01:15;31.30;63.90
2913;DHT22;1466;48.778;9.166;2022-07-24T13:03:41;31.20;64.40
2913;DHT22;1466;48.778;9.166;2022-07-24T13:06:09;31.10;64.70
2913;DHT22;1466;48.778;9.166;2022-07-24T13:08:34;31.10;64.50
2913;DHT22;1466;48.778;9.166;2022-07-24T13:11:00;31.10;64.30
2913;DHT22;1466;48.778;9.166;2022-07-24T13:13:26;31.10;64.50
2913;DHT22;1466;48.778;9.166;2022-07-24T13:15:51;31.10;64.70
2913;DHT22;1466;48.778;9.166;2022-07-24T13:18:17;31.00;64.30
2913;DHT22;1466;48.778;9.166;2022-07-24T13:20:43;31.10;64.50
2913;DHT22;1466;48.778;9.166;2022-07-24T13:23:08;31.30;64.40
2913;DHT22;1466;48.778;9.166;2022-07-24T13:25:34;31.40;64.40
2913;DHT22;1466;48.778;9.166;2022-07-24T13:27:59;31.30;64.90
2913;DHT22;1466;48.778;9.166;2022-07-24T13:30:25;31.20;63.80
2913;DHT22;1466;48.778;9.166;2022-07-24T13:32:51;31.20;63.70
2913;DHT22;1466;48.778;9.166;2022-07-24T13:35:16;31.30;63.80
2913;DHT22;1466;48.778;9.166;2022-07-24T13:37:42;31.40;64.00
2913;DHT22;1466;48.778;9.166;2022-07-24T13:40:08;31.40;64.10
2913;DHT22;1466;48.778;9.166;2022-07-24T13:42:37;31.50;63.70
2913;DHT22;1466;48.778;9.166;2022-07-24T13:45:03;31.50;63.80
2913;DHT22;1466;48.778;9.166;2022-07-24T13:47:28;31.60;63.70
2913;DHT22;1466;48.778;9.166;2022-07-24T13:49:54;31.70;63.30
2913;DHT22;1466;48.778;9.166;2022-07-24T13:52:20;31.60;63.40
2913;DHT22;1466;48.778;9.166;2022-07-24T13:54:45;31.50;64.00
2913;DHT22;1466;48.778;9.166;2022-07-24T13:57:11;31.50;64.00
2913;DHT22;1466;48.778;9.166;2022-07-24T13:59:38;31.50;64.00
2913;DHT22;1466;48.778;9.166;2022-07-24T14:02:04;31.50;64.00
2913;DHT22;1466;48.778;9.166;2022-07-24T14:04:30;31.50;63.80
2913;DHT22;1466;48.778;9.166;2022-07-24T14:06:56;31.50;63.80
2913;DHT22;1466;48.778;9.166;2022-07-24T14:09:22;31.40;63.50
2913;DHT22;1466;48.778;9.166;2022-07-24T14:11:48;31.50;63.50
2913;DHT22;1466;48.778;9.166;2022-07-24T14:14:14;31.50;63.20
2913;DHT22;1466;48.778;9.166;2022-07-24T14:16:40;31.50;63.50
2913;DHT22;1466;48.778;9.166;2022-07-24T14:19:06;31.50;63.80
2913;DHT22;1466;48.778;9.166;2022-07-24T14:21:31;31.60;62.70
2913;DHT22;1466;48.778;9.166;2022-07-24T14:23:59;31.60;62.30
2913;DHT22;1466;48.778;9.166;2022-07-24T14:26:24;31.60;62.60
2913;DHT22;1466;48.778;9.166;2022-07-24T14:28:50;31.80;61.80
2913;DHT22;1466;48.778;9.166;2022-07-24T14:31:15;31.80;62.30
2913;DHT22;1466;48.778;9.166;2022-07-24T14:33:41;31.90;62.20
2913;DHT22;1466;48.778;9.166;2022-07-24T14:36:07;31.90;61.30
2913;DHT22;1466;48.778;9.166;2022-07-24T14:38:32;31.90;61.90
2913;DHT22;1466;48.778;9.166;2022-07-24T14:40:58;31.80;62.60
2913;DHT22;1466;48.778;9.166;2022-07-24T14:43:24;31.80;62.80
2913;DHT22;1466;48.778;9.166;2022-07-24T14:45:49;31.80;62.50
2913;DHT22;1466;48.778;9.166;2022-07-24T14:48:15;31.80;61.30
2913;DHT22;1466;48.778;9.166;2022-07-24T14:50:41;31.90;60.80
2913;DHT22;1466;48.778;9.166;2022-07-24T14:53:07;32.00;60.70
2913;DHT22;1466;48.778;9.166;2022-07-24T14:55:33;32.00;60.60
2913;DHT22;1466;48.778;9.166;2022-07-24T14:57:58;32.00;60.60
2913;DHT22;1466;48.778;9.166;2022-07-24T15:00:24;32.00;61.10
2913;DHT22;1466;48.778;9.166;2022-07-24T15:02:49;31.90;61.50
2913;DHT22;1466;48.778;9.166;2022-07-24T15:05:15;31.90;61.70
2913;DHT22;1466;48.778;9.166;2022-07-24T15:07:41;31.90;61.90
2913;DHT22;1466;48.778;9.166;2022-07-24T15:10:10;31.90;62.80
2913;DHT22;1466;48.778;9.166;2022-07-24T15:12:35;32.00;62.20
2913;DHT22;1466;48.778;9.166;2022-07-24T15:15:01;32.10;62.30
2913;DHT22;1466;48.778;9.166;2022-07-24T15:17:26;32.10;61.10
2913;DHT22;1466;48.778;9.166;2022-07-24T15:19:52;32.10;60.40
2913;DHT22;1466;48.778;9.166;2022-07-24T15:22:18;32.20;60.70
2913;DHT22;1466;48.778;9.166;2022-07-24T15:24:43;32.30;60.10
2913;DHT22;1466;48.778;9.166;2022-07-24T15:27:09;32.30;60.20
2913;DHT22;1466;48.778;9.166;2022-07-24T15:29:34;32.30;60.50
2913;DHT22;1466;48.778;9.166;2022-07-24T15:32:00;32.30;59.70
2913;DHT22;1466;48.778;9.166;2022-07-24T15:34:26;32.30;59.60
2913;DHT22;1466;48.778;9.166;2022-07-24T15:36:51;32.30;59.30
2913;DHT22;1466;48.778;9.166;2022-07-24T15:39:17;32.30;59.10
2913;DHT22;1466;48.778;9.166;2022-07-24T15:41:43;32.30;59.00
2913;DHT22;1466;48.778;9.166;2022-07-24T15:44:08;32.40;59.10
2913;DHT22;1466;48.778;9.166;2022-07-24T15:46:34;32.50;59.20
2913;DHT22;1466;48.778;9.166;2022-07-24T15:49:03;32.50;59.10
2913;DHT22;1466;48.778;9.166;2022-07-24T15:51:28;32.50;59.50
2913;DHT22;1466;48.778;9.166;2022-07-24T15:53:54;32.30;60.00
2913;DHT22;1466;48.778;9.166;2022-07-24T15:56:22;32.30;60.00
2913;DHT22;1466;48.778;9.166;2022-07-24T15:58:48;32.30;60.10
2913;DHT22;1466;48.778;9.166;2022-07-24T16:01:13;32.20;60.10
2913;DHT22;1466;48.778;9.166;2022-07-24T16:03:39;32.30;59.70
2913;DHT22;1466;48.778;9.166;2022-07-24T16:06:05;32.30;59.70
2913;DHT22;1466;48.778;9.166;2022-07-24T16:08:30;32.30;59.90
2913;DHT22;1466;48.778;9.166;2022-07-24T16:10:56;32.30;60.20
2913;DHT22;1466;48.778;9.166;2022-07-24T16:13:22;32.30;60.20
2913;DHT22;1466;48.778;9.166;2022-07-24T16:15:47;32.30;60.10
2913;DHT22;1466;48.778;9.166;2022-07-24T16:18:13;32.20;60.40
2913;DHT22;1466;48.778;9.166;2022-07-24T16:20:39;32.20;60.60
2913;DHT22;1466;48.778;9.166;2022-07-24T16:23:04;32.20;60.70
2913;DHT22;1466;48.778;9.166;2022-07-24T16:25:30;32.30;60.70
2913;DHT22;1466;48.778;9.166;2022-07-24T16:27:55;32.30;60.30
2913;DHT22;1466;48.778;9.166;2022-07-24T16:30:21;32.30;60.50
2913;DHT22;1466;48.778;9.166;2022-07-24T16:32:47;32.40;59.60
2913;DHT22;1466;48.778;9.166;2022-07-24T16:35:12;32.40;59.70
2913;DHT22;1466;48.778;9.166;2022-07-24T16:37:38;32.40;60.00
2913;DHT22;1466;48.778;9.166;2022-07-24T16:40:04;32.40;59.50